Time;durP1;ratioP1;P1;durP2;ratioP2;P2;SDS_P1;SDS_P2;PMS_P1;PMS_P2;Temp;Humidity;BMP_temperature;BMP_pressure;BME280_temperature;BME280_humidity;BME280_pressure;Samples;Min_cycle;Max_cycle;Signal;HPM_P1;HPM_P2
2023/08/17 00:03:39;;;;;;;;;;;17.40;99.90;;;;;;12351975;28;20079;-83
2023/08/17 00:09:41;;;;;;;;;;;17.40;99.90;;;;;;12360087;28;20370;-82
2023/08/17 00:15:45;;;;;;;;;;;17.40;99.90;;;;;;12358991;28;20080;-83
2023/08/17 00:21:46;;;;;;;;;;;17.30;99.90;;;;;;12352169;28;19933;-83
2023/08/17 00:27:48;;;;;;;;;;;17.30;99.90;;;;;;12357481;28;20445;-83
2023/08/17 00:33:50;;;;;;;;;;;17.20;99.90;;;;;;12358586;28;20424;-83
2023/08/17 00:39:52;;;;;;;;;;;17.10;99.90;;;;;;12357750;28;21845;-84
2023/08/17 00:45:54;;;;;;;;;;;17.10;99.90;;;;;;12368948;28;19933;-85
2023/08/17 00:51:56;;;;;;;;;;;17.00;99.90;;;;;;12356853;28;19946;-85
2023/08/17 00:57:58;;;;;;;;;;;16.90;99.90;;;;;;12360911;28;19933;-85
2023/08/17 01:04:00;;;;;;;;;;;16.80;99.90;;;;;;12372201;28;19938;-85
2023/08/17 01:10:06;;;;;;;;;;;16.80;99.90;;;;;;12366023;28;19930;-85
2023/08/17 01:16:10;;;;;;;;;;;16.80;99.90;;;;;;12366368;28;20048;-85
2023/08/17 01:22:12;;;;;;;;;;;16.80;99.90;;;;;;12366309;28;20395;-86
2023/08/17 01:28:14;;;;;;;;;;;16.80;99.90;;;;;;12275843;28;20025;-85
2023/08/17 01:34:19;;;;;;;;;;;16.80;99.90;;;;;;12287970;28;19931;-86
2023/08/17 01:40:21;;;;;;;;;;;16.70;99.90;;;;;;12292036;28;19972;-85
2023/08/17 01:46:23;;;;;;;;;;;16.70;99.90;;;;;;12279281;28;19975;-84
2023/08/17 01:52:27;;;;;;;;;;;16.60;99.90;;;;;;12265287;28;19941;-83
2023/08/17 01:58:28;;;;;;;;;;;16.50;99.90;;;;;;12282755;28;20450;-83
2023/08/17 02:04:30;;;;;;;;;;;16.40;99.90;;;;;;12284984;28;19934;-83
2023/08/17 02:10:32;;;;;;;;;;;16.40;99.90;;;;;;12264248;28;19989;-83
2023/08/17 02:16:34;;;;;;;;;;;16.60;99.90;;;;;;12269533;28;20013;-83
2023/08/17 02:22:36;;;;;;;;;;;16.60;99.90;;;;;;12284674;28;19950;-83
2023/08/17 02:28:37;;;;;;;;;;;16.60;99.90;;;;;;12424067;28;19936;-83
2023/08/17 02:34:39;;;;;;;;;;;16.60;99.90;;;;;;12389731;28;20586;-82
2023/08/17 02:40:41;;;;;;;;;;;16.40;99.90;;;;;;12339235;28;19972;-82
2023/08/17 02:46:43;;;;;;;;;;;16.20;99.90;;;;;;12381579;28;20548;-82
2023/08/17 02:52:44;;;;;;;;;;;16.40;99.90;;;;;;12345040;28;19972;-82
2023/08/17 02:58:46;;;;;;;;;;;16.60;99.90;;;;;;12360951;28;19926;-82
2023/08/17 03:04:48;;;;;;;;;;;16.70;99.90;;;;;;12388882;28;20033;-82
2023/08/17 03:10:50;;;;;;;;;;;16.80;99.90;;;;;;12334892;28;19933;-82
2023/08/17 03:16:51;;;;;;;;;;;16.90;99.90;;;;;;12376897;28;19960;-83
2023/08/17 03:22:53;;;;;;;;;;;17.00;99.90;;;;;;12364912;28;20389;-83
2023/08/17 03:28:55;;;;;;;;;;;17.00;99.90;;;;;;12344458;28;20413;-82
2023/08/17 03:34:56;;;;;;;;;;;17.00;99.90;;;;;;12346178;28;20298;-83
2023/08/17 03:40:58;;;;;;;;;;;16.90;99.90;;;;;;12353060;28;20386;-83
2023/08/17 03:47:00;;;;;;;;;;;16.90;99.90;;;;;;12340773;28;19930;-83
2023/08/17 03:53:02;;;;;;;;;;;16.90;99.90;;;;;;12345049;28;19930;-83
2023/08/17 03:59:03;;;;;;;;;;;16.90;99.90;;;;;;12357166;28;19937;-83
2023/08/17 04:05:05;;;;;;;;;;;16.90;99.90;;;;;;12359885;28;19930;-82
2023/08/17 04:11:07;;;;;;;;;;;16.90;99.90;;;;;;12336381;28;19926;-83
2023/08/17 04:17:09;;;;;;;;;;;16.90;99.90;;;;;;12362757;28;19969;-82
2023/08/17 04:23:11;;;;;;;;;;;16.90;99.90;;;;;;12346906;28;19937;-82
2023/08/17 04:29:13;;;;;;;;;;;16.90;99.90;;;;;;12363142;28;20017;-82
2023/08/17 04:35:14;;;;;;;;;;;16.80;99.90;;;;;;12379028;28;20379;-82
2023/08/17 04:41:16;;;;;;;;;;;16.50;99.90;;;;;;12363739;28;20347;-82
2023/08/17 04:47:18;;;;;;;;;;;16.40;99.90;;;;;;12364645;28;19977;-82
2023/08/17 04:53:20;;;;;;;;;;;16.60;99.90;;;;;;12346027;28;19984;-82
2023/08/17 04:59:22;;;;;;;;;;;16.70;99.90;;;;;;12373766;28;19933;-82
2023/08/17 05:05:23;;;;;;;;;;;16.60;99.90;;;;;;12357754;28;20016;-83
2023/08/17 05:11:25;;;;;;;;;;;16.60;99.90;;;;;;12360633;28;19941;-82
2023/08/17 05:17:27;;;;;;;;;;;16.60;99.90;;;;;;12375822;28;19926;-82
2023/08/17 05:23:29;;;;;;;;;;;16.50;99.90;;;;;;12370286;28;21785;-82
2023/08/17 05:29:34;;;;;;;;;;;16.50;99.90;;;;;;12359836;28;19930;-81
2023/08/17 05:35:36;;;;;;;;;;;16.50;99.90;;;;;;12366470;28;19981;-82
2023/08/17 05:41:38;;;;;;;;;;;16.50;99.90;;;;;;12352924;28;19937;-82
2023/08/17 05:47:39;;;;;;;;;;;16.60;99.90;;;;;;12367097;28;19957;-82
2023/08/17 05:53:41;;;;;;;;;;;16.50;99.90;;;;;;12365880;28;19938;-82
2023/08/17 05:59:43;;;;;;;;;;;16.40;99.90;;;;;;12384046;28;19930;-82
2023/08/17 06:05:45;;;;;;;;;;;16.50;99.90;;;;;;12373121;28;19953;-82
2023/08/17 06:11:46;;;;;;;;;;;16.40;99.90;;;;;;12358233;28;19957;-82
2023/08/17 06:17:51;;;;;;;;;;;16.30;99.90;;;;;;12382506;28;19978;-82
2023/08/17 06:23:53;;;;;;;;;;;16.40;99.90;;;;;;12370053;28;19933;-82
2023/08/17 06:29:55;;;;;;;;;;;16.50;99.90;;;;;;12368131;28;20501;-82
2023/08/17 06:35:57;;;;;;;;;;;16.50;99.90;;;;;;12349898;28;19926;-83
2023/08/17 06:41:58;;;;;;;;;;;16.60;99.90;;;;;;12363378;28;20029;-82
2023/08/17 06:48:00;;;;;;;;;;;16.60;99.90;;;;;;12366839;28;20008;-82
2023/08/17 06:54:02;;;;;;;;;;;16.60;99.90;;;;;;12363550;28;19936;-82
2023/08/17 07:00:07;;;;;;;;;;;16.60;99.90;;;;;;12359405;28;19930;-82
2023/08/17 07:06:09;;;;;;;;;;;16.60;99.90;;;;;;12354326;28;19984;-82
2023/08/17 07:12:11;;;;;;;;;;;16.70;99.90;;;;;;12346094;28;19933;-82
2023/08/17 07:18:13;;;;;;;;;;;16.70;99.90;;;;;;12370515;28;19957;-82
2023/08/17 07:24:15;;;;;;;;;;;16.80;99.90;;;;;;12356454;28;20016;-82
2023/08/17 07:30:17;;;;;;;;;;;16.80;99.90;;;;;;12368037;28;19934;-82
2023/08/17 07:36:19;;;;;;;;;;;16.90;99.90;;;;;;12320199;28;19930;-82
2023/08/17 07:42:20;;;;;;;;;;;16.90;99.90;;;;;;12337243;28;20379;-83
2023/08/17 07:48:23;;;;;;;;;;;17.10;99.90;;;;;;12351735;28;19932;-83
2023/08/17 07:54:25;;;;;;;;;;;17.10;99.90;;;;;;12340961;28;19930;-82
2023/08/17 08:00:27;;;;;;;;;;;17.10;99.90;;;;;;12351159;28;19926;-83
2023/08/17 08:06:29;;;;;;;;;;;17.10;99.90;;;;;;12353178;28;19933;-82
2023/08/17 08:12:33;;;;;;;;;;;17.20;99.90;;;;;;12365546;28;19979;-82
2023/08/17 08:18:35;;;;;;;;;;;17.20;99.90;;;;;;12361738;28;19992;-82
2023/08/17 08:24:37;;;;;;;;;;;17.30;99.90;;;;;;12350116;28;20370;-82
2023/08/17 08:30:40;;;;;;;;;;;17.20;99.90;;;;;;12353257;28;20028;-83
2023/08/17 08:36:42;;;;;;;;;;;17.30;99.90;;;;;;12352238;28;20013;-83
2023/08/17 08:42:44;;;;;;;;;;;17.30;99.90;;;;;;12342506;28;19962;-83
2023/08/17 08:48:47;;;;;;;;;;;17.40;99.90;;;;;;12355354;28;19934;-82
2023/08/17 08:54:49;;;;;;;;;;;17.40;99.90;;;;;;12349229;28;19982;-82
2023/08/17 09:00:52;;;;;;;;;;;17.40;99.90;;;;;;12361894;28;20065;-82
2023/08/17 09:06:54;;;;;;;;;;;17.40;99.90;;;;;;12352627;28;19937;-83
2023/08/17 09:12:56;;;;;;;;;;;17.40;99.90;;;;;;12359743;28;19930;-83
2023/08/17 09:18:58;;;;;;;;;;;17.50;99.90;;;;;;12377836;28;19937;-83
2023/08/17 09:25:00;;;;;;;;;;;17.40;99.90;;;;;;12353098;28;19941;-83
2023/08/17 09:31:04;;;;;;;;;;;17.50;99.90;;;;;;12366475;28;20040;-83
2023/08/17 09:37:06;;;;;;;;;;;17.50;99.90;;;;;;12366231;28;19988;-83
2023/08/17 09:43:08;;;;;;;;;;;17.50;99.90;;;;;;12344929;28;20013;-83
2023/08/17 09:49:10;;;;;;;;;;;17.40;99.90;;;;;;12364497;28;19933;-83
2023/08/17 09:55:12;;;;;;;;;;;17.40;99.90;;;;;;12358100;28;20390;-83
2023/08/17 10:01:15;;;;;;;;;;;17.40;99.90;;;;;;12348633;28;19926;-83
2023/08/17 10:07:21;;;;;;;;;;;17.50;99.90;;;;;;12340721;28;19927;-83
2023/08/17 10:13:28;;;;;;;;;;;17.60;99.90;;;;;;12348612;28;19980;-83
2023/08/17 10:19:45;;;;;;;;;;;17.50;99.90;;;;;;12375552;28;19972;-83
2023/08/17 10:25:47;;;;;;;;;;;17.30;99.90;;;;;;12366186;28;19933;-83
2023/08/17 10:31:52;;;;;;;;;;;17.40;99.90;;;;;;12357774;28;19930;-83
2023/08/17 10:37:54;;;;;;;;;;;17.40;99.90;;;;;;12366413;28;20563;-83
2023/08/17 10:43:59;;;;;;;;;;;17.30;99.90;;;;;;12360076;28;19937;-82
2023/08/17 10:50:07;;;;;;;;;;;17.40;99.90;;;;;;12375741;28;20374;-83
2023/08/17 10:56:13;;;;;;;;;;;17.40;99.90;;;;;;12366717;28;19926;-83
2023/08/17 11:02:15;;;;;;;;;;;17.30;99.90;;;;;;12376787;28;20028;-83
2023/08/17 11:08:31;;;;;;;;;;;17.40;99.90;;;;;;12379066;28;20430;-84
2023/08/17 11:14:34;;;;;;;;;;;17.60;99.90;;;;;;12356161;28;19979;-84
2023/08/17 11:20:37;;;;;;;;;;;17.70;99.90;;;;;;12369964;28;20437;-83
2023/08/17 11:26:40;;;;;;;;;;;17.60;99.90;;;;;;12351531;28;19980;-83
2023/08/17 11:32:41;;;;;;;;;;;17.60;99.90;;;;;;12349524;28;19926;-83
2023/08/17 11:38:43;;;;;;;;;;;17.60;99.90;;;;;;12342688;28;20231;-83
2023/08/17 11:44:46;;;;;;;;;;;17.60;99.90;;;;;;12358726;28;19926;-83
2023/08/17 11:50:48;;;;;;;;;;;17.60;99.90;;;;;;12369479;28;20033;-83
2023/08/17 11:56:50;;;;;;;;;;;17.60;99.90;;;;;;12347966;28;20020;-83
2023/08/17 12:02:52;;;;;;;;;;;17.50;99.90;;;;;;12363011;28;19926;-83
2023/08/17 12:08:54;;;;;;;;;;;17.50;99.90;;;;;;12366971;28;19929;-83
2023/08/17 12:14:57;;;;;;;;;;;17.60;99.90;;;;;;12353943;28;20009;-83
2023/08/17 12:20:58;;;;;;;;;;;17.60;99.90;;;;;;12353860;28;19974;-83
2023/08/17 12:27:04;;;;;;;;;;;17.40;99.90;;;;;;12338592;28;19926;-83
2023/08/17 12:33:06;;;;;;;;;;;17.50;99.90;;;;;;12369476;28;19930;-85
2023/08/17 12:39:08;;;;;;;;;;;17.30;99.90;;;;;;12337586;28;19926;-85
2023/08/17 12:45:10;;;;;;;;;;;17.20;99.90;;;;;;12345135;28;20016;-85
2023/08/17 12:51:11;;;;;;;;;;;17.40;99.90;;;;;;12351172;28;19938;-85
2023/08/17 12:57:13;;;;;;;;;;;17.30;99.90;;;;;;12349521;28;19974;-85
2023/08/17 13:03:15;;;;;;;;;;;17.10;99.90;;;;;;12365767;28;19926;-86
2023/08/17 13:09:18;;;;;;;;;;;16.90;99.90;;;;;;12343289;28;20024;-85
2023/08/17 13:15:21;;;;;;;;;;;17.10;99.90;;;;;;12379967;28;19930;-85
2023/08/17 13:21:23;;;;;;;;;;;17.20;99.90;;;;;;12378950;28;19926;-85
2023/08/17 13:27:25;;;;;;;;;;;17.30;99.90;;;;;;12356815;28;20021;-85
2023/08/17 13:33:26;;;;;;;;;;;17.30;99.90;;;;;;12359571;28;19971;-85
2023/08/17 13:39:28;;;;;;;;;;;17.40;99.90;;;;;;12359056;28;19933;-84
2023/08/17 13:45:30;;;;;;;;;;;17.00;99.90;;;;;;12357635;28;19953;-83
2023/08/17 13:51:32;;;;;;;;;;;17.20;99.90;;;;;;12350355;28;19937;-83
2023/08/17 13:57:33;;;;;;;;;;;17.10;99.90;;;;;;12344513;28;20398;-83
2023/08/17 14:03:35;;;;;;;;;;;17.00;99.90;;;;;;12368455;28;19953;-83
2023/08/17 14:09:37;;;;;;;;;;;17.10;99.90;;;;;;12369411;28;20390;-83
2023/08/17 14:15:39;;;;;;;;;;;17.00;99.90;;;;;;12368478;28;19926;-83
2023/08/17 14:21:41;;;;;;;;;;;17.00;99.90;;;;;;12366671;28;19984;-83
2023/08/17 14:27:42;;;;;;;;;;;17.00;99.90;;;;;;12343791;28;19984;-83
2023/08/17 14:33:47;;;;;;;;;;;16.80;99.90;;;;;;12360791;28;20064;-83
2023/08/17 14:39:49;;;;;;;;;;;16.60;99.90;;;;;;12351942;28;20016;-84
2023/08/17 14:45:51;;;;;;;;;;;16.90;99.90;;;;;;12370556;28;19979;-83
2023/08/17 14:51:53;;;;;;;;;;;17.00;99.90;;;;;;12379692;28;19949;-85
2023/08/17 14:57:54;;;;;;;;;;;17.00;99.90;;;;;;12417399;28;19985;-85
2023/08/17 15:03:56;;;;;;;;;;;16.80;99.90;;;;;;12408112;28;19918;-85
2023/08/17 15:09:58;;;;;;;;;;;16.90;99.90;;;;;;12410637;28;19981;-85
2023/08/17 15:16:00;;;;;;;;;;;16.90;99.90;;;;;;12419154;28;19929;-85
2023/08/17 15:22:02;;;;;;;;;;;17.00;99.90;;;;;;12419666;28;19922;-85
2023/08/17 15:28:03;;;;;;;;;;;16.90;99.90;;;;;;12416347;28;19914;-85
2023/08/17 15:34:05;;;;;;;;;;;16.90;99.90;;;;;;12414437;28;19930;-85
2023/08/17 15:40:07;;;;;;;;;;;16.80;99.90;;;;;;12350263;28;19933;-86
2023/08/17 15:46:09;;;;;;;;;;;16.80;99.90;;;;;;12361192;28;20032;-85
2023/08/17 15:52:11;;;;;;;;;;;16.70;99.90;;;;;;12358796;28;20663;-85
2023/08/17 15:58:13;;;;;;;;;;;16.80;99.90;;;;;;12352299;28;20008;-85
2023/08/17 16:04:15;;;;;;;;;;;17.00;99.90;;;;;;12383379;28;20406;-85
2023/08/17 16:10:17;;;;;;;;;;;17.00;99.90;;;;;;12352285;28;20025;-85
2023/08/17 16:16:18;;;;;;;;;;;16.80;99.90;;;;;;12344248;28;20016;-85
2023/08/17 16:22:20;;;;;;;;;;;16.70;99.90;;;;;;12347814;28;19926;-85
2023/08/17 16:28:22;;;;;;;;;;;16.70;99.90;;;;;;12367809;28;19995;-85
2023/08/17 16:34:23;;;;;;;;;;;16.70;99.90;;;;;;12374941;28;19984;-85
2023/08/17 16:40:25;;;;;;;;;;;16.60;99.90;;;;;;12349561;28;20417;-85
2023/08/17 16:46:39;;;;;;;;;;;16.70;99.90;;;;;;12371051;28;20041;-84
2023/08/17 16:52:40;;;;;;;;;;;16.70;99.90;;;;;;12365779;28;20254;-84
2023/08/17 16:58:42;;;;;;;;;;;16.60;99.90;;;;;;12353672;28;20267;-84
2023/08/17 17:04:44;;;;;;;;;;;16.60;99.90;;;;;;12361174;28;20076;-84
2023/08/17 17:10:46;;;;;;;;;;;16.60;99.90;;;;;;12363824;28;20016;-84
2023/08/17 17:16:47;;;;;;;;;;;16.50;99.90;;;;;;12378608;28;20020;-84
2023/08/17 17:22:49;;;;;;;;;;;16.50;99.90;;;;;;12393333;28;20298;-84
2023/08/17 17:28:51;;;;;;;;;;;16.50;99.90;;;;;;12349480;28;19926;-84
2023/08/17 17:34:53;;;;;;;;;;;16.50;99.90;;;;;;12366768;28;20033;-84
2023/08/17 17:40:55;;;;;;;;;;;16.40;99.90;;;;;;12401926;28;19926;-84
2023/08/17 17:46:57;;;;;;;;;;;16.40;99.90;;;;;;12416002;28;19932;-85
2023/08/17 17:52:59;;;;;;;;;;;16.30;99.90;;;;;;12425991;28;19940;-84
2023/08/17 17:59:01;;;;;;;;;;;16.30;99.90;;;;;;12419854;28;19989;-84
2023/08/17 18:05:03;;;;;;;;;;;16.40;99.90;;;;;;12386881;28;19933;-84
2023/08/17 18:11:05;;;;;;;;;;;16.30;99.90;;;;;;12368370;28;20270;-85
2023/08/17 18:17:07;;;;;;;;;;;16.30;99.90;;;;;;12377961;28;20136;-84
2023/08/17 18:23:09;;;;;;;;;;;16.30;99.90;;;;;;12371672;28;19969;-84
2023/08/17 18:29:12;;;;;;;;;;;16.20;99.90;;;;;;12354534;28;19958;-84
2023/08/17 18:35:17;;;;;;;;;;;16.10;99.90;;;;;;12346441;28;19929;-84
2023/08/17 18:41:22;;;;;;;;;;;16.10;99.90;;;;;;12346582;28;19926;-83
2023/08/17 18:47:24;;;;;;;;;;;16.10;99.90;;;;;;12359724;28;19980;-83
2023/08/17 18:53:26;;;;;;;;;;;16.10;99.90;;;;;;12366595;28;19934;-83
2023/08/17 18:59:27;;;;;;;;;;;16.10;99.90;;;;;;12362008;28;19933;-83
2023/08/17 19:05:29;;;;;;;;;;;16.10;99.90;;;;;;12373454;28;19997;-84
2023/08/17 19:11:31;;;;;;;;;;;16.10;99.90;;;;;;12363661;28;19933;-84
2023/08/17 19:17:33;;;;;;;;;;;16.10;99.90;;;;;;12348222;28;19941;-83
2023/08/17 19:23:35;;;;;;;;;;;16.10;99.90;;;;;;12345278;28;19954;-83
2023/08/17 19:29:36;;;;;;;;;;;16.10;99.90;;;;;;12355819;28;19930;-83
2023/08/17 19:35:38;;;;;;;;;;;16.00;99.90;;;;;;12374332;28;19973;-85
2023/08/17 19:41:41;;;;;;;;;;;16.00;99.90;;;;;;12362020;28;19980;-86
2023/08/17 19:47:45;;;;;;;;;;;16.00;99.90;;;;;;12349914;28;21849;-85
2023/08/17 19:53:47;;;;;;;;;;;16.00;99.90;;;;;;12348852;28;20307;-85
2023/08/17 19:59:49;;;;;;;;;;;15.90;99.90;;;;;;12373873;28;19929;-85
2023/08/17 20:05:54;;;;;;;;;;;16.00;99.90;;;;;;12346998;28;19995;-86
2023/08/17 20:11:56;;;;;;;;;;;15.90;99.90;;;;;;12381743;28;20582;-85
2023/08/17 20:17:58;;;;;;;;;;;15.90;99.90;;;;;;12363307;28;19986;-85
2023/08/17 20:24:00;;;;;;;;;;;15.90;99.90;;;;;;12368514;28;19970;-84
2023/08/17 20:30:02;;;;;;;;;;;16.00;99.90;;;;;;12339281;28;19973;-85
2023/08/17 20:36:04;;;;;;;;;;;16.00;99.90;;;;;;12368849;28;19991;-85
2023/08/17 20:42:07;;;;;;;;;;;16.00;99.90;;;;;;12368290;28;19969;-85
2023/08/17 20:48:09;;;;;;;;;;;16.00;99.90;;;;;;12350702;28;19965;-83
2023/08/17 20:54:10;;;;;;;;;;;16.00;99.90;;;;;;12350630;28;19930;-83
2023/08/17 21:00:13;;;;;;;;;;;16.10;99.90;;;;;;12360972;28;19942;-83
2023/08/17 21:06:15;;;;;;;;;;;16.00;99.90;;;;;;12361102;28;20012;-83
2023/08/17 21:12:17;;;;;;;;;;;16.00;99.90;;;;;;12352831;28;19926;-83
2023/08/17 21:18:19;;;;;;;;;;;16.10;99.90;;;;;;12355165;28;20461;-83
2023/08/17 21:24:20;;;;;;;;;;;16.10;99.90;;;;;;12377453;28;19926;-83
2023/08/17 21:30:25;;;;;;;;;;;16.20;99.90;;;;;;12372283;28;19926;-83
2023/08/17 21:36:27;;;;;;;;;;;16.20;99.90;;;;;;12378617;28;19926;-83
2023/08/17 21:42:28;;;;;;;;;;;16.20;99.90;;;;;;12357659;28;20072;-83
2023/08/17 21:48:30;;;;;;;;;;;16.20;99.90;;;;;;12368298;28;20012;-83
2023/08/17 21:54:32;;;;;;;;;;;16.20;99.90;;;;;;12367903;28;19930;-83
2023/08/17 22:00:34;;;;;;;;;;;16.20;99.90;;;;;;12356518;28;19926;-83
2023/08/17 22:06:37;;;;;;;;;;;16.10;99.90;;;;;;12370223;28;20028;-83
2023/08/17 22:12:38;;;;;;;;;;;16.20;99.90;;;;;;12364678;28;19930;-83
2023/08/17 22:18:40;;;;;;;;;;;16.10;99.90;;;;;;12357644;28;19980;-83
2023/08/17 22:24:42;;;;;;;;;;;16.00;99.90;;;;;;12355940;28;20005;-83
2023/08/17 22:30:47;;;;;;;;;;;16.00;99.90;;;;;;12353075;28;20064;-83
2023/08/17 22:36:49;;;;;;;;;;;16.00;99.90;;;;;;12344740;28;19934;-83
2023/08/17 22:42:50;;;;;;;;;;;16.00;99.90;;;;;;12353646;28;20409;-83
2023/08/17 22:48:52;;;;;;;;;;;16.00;99.90;;;;;;12366033;28;20320;-83
2023/08/17 22:54:54;;;;;;;;;;;15.90;99.90;;;;;;12369830;28;19930;-83
2023/08/17 23:00:56;;;;;;;;;;;15.90;99.90;;;;;;12358046;28;19930;-83
2023/08/17 23:06:58;;;;;;;;;;;16.00;99.90;;;;;;12358675;28;19925;-86
2023/08/17 23:13:00;;;;;;;;;;;15.90;99.90;;;;;;12353306;28;20017;-85
2023/08/17 23:19:02;;;;;;;;;;;16.00;99.90;;;;;;12364931;28;20064;-85
2023/08/17 23:25:04;;;;;;;;;;;15.90;99.90;;;;;;12371457;28;19972;-84
2023/08/17 23:31:06;;;;;;;;;;;15.90;99.90;;;;;;12348336;28;20370;-85
2023/08/17 23:37:08;;;;;;;;;;;15.90;99.90;;;;;;12346169;28;20282;-85
2023/08/17 23:43:11;;;;;;;;;;;16.00;99.90;;;;;;12345939;28;19977;-85
2023/08/17 23:49:16;;;;;;;;;;;16.00;99.90;;;;;;12361760;28;19926;-85
2023/08/17 23:55:17;;;;;;;;;;;16.10;99.90;;;;;;12349389;28;19930;-85
